sensor_id;sensor_type;location;lat;lon;timestamp;pressure;altitude;pressure_sealevel;temperature;humidity
35553;BME280;21656;46.054;13.614;2023-03-26T00:00:34;100327.03;;;8.35;100.00
35553;BME280;21656;46.054;13.614;2023-03-26T00:02:59;100325.34;;;8.34;100.00
35553;BME280;21656;46.054;13.614;2023-03-26T00:05:24;100314.59;;;8.34;100.00
35553;BME280;21656;46.054;13.614;2023-03-26T00:07:50;100314.28;;;8.38;100.00
35553;BME280;21656;46.054;13.614;2023-03-26T00:10:15;100316.19;;;8.36;100.00
35553;BME280;21656;46.054;13.614;2023-03-26T00:12:41;100309.56;;;8.42;100.00
35553;BME280;21656;46.054;13.614;2023-03-26T00:15:06;100306.97;;;8.40;100.00
35553;BME280;21656;46.054;13.614;2023-03-26T00:17:34;100298.72;;;8.43;100.00
35553;BME280;21656;46.054;13.614;2023-03-26T00:19:59;100291.75;;;8.41;100.00
35553;BME280;21656;46.054;13.614;2023-03-26T00:22:24;100305.03;;;8.42;100.00
35553;BME280;21656;46.054;13.614;2023-03-26T00:24:50;100304.94;;;8.44;100.00
35553;BME280;21656;46.054;13.614;2023-03-26T00:27:16;100309.47;;;8.43;100.00
35553;BME280;21656;46.054;13.614;2023-03-26T00:29:41;100307.28;;;8.49;100.00
35553;BME280;21656;46.054;13.614;2023-03-26T00:32:07;100296.88;;;8.44;100.00
35553;BME280;21656;46.054;13.614;2023-03-26T00:34:32;100299.56;;;8.44;100.00
35553;BME280;21656;46.054;13.614;2023-03-26T00:36:58;100297.63;;;8.46;100.00
35553;BME280;21656;46.054;13.614;2023-03-26T00:39:26;100298.91;;;8.40;100.00
35553;BME280;21656;46.054;13.614;2023-03-26T00:41:53;100302.59;;;8.39;100.00
35553;BME280;21656;46.054;13.614;2023-03-26T00:44:18;100299.91;;;8.39;100.00
35553;BME280;21656;46.054;13.614;2023-03-26T00:46:44;100304.81;;;8.45;100.00
35553;BME280;21656;46.054;13.614;2023-03-26T00:49:10;100301.34;;;8.56;100.00
35553;BME280;21656;46.054;13.614;2023-03-26T00:51:38;100304.38;;;8.52;100.00
35553;BME280;21656;46.054;13.614;2023-03-26T00:54:03;100303.63;;;8.50;100.00
35553;BME280;21656;46.054;13.614;2023-03-26T00:56:29;100295.09;;;8.56;100.00
35553;BME280;21656;46.054;13.614;2023-03-26T00:58:54;100301.34;;;8.56;100.00
35553;BME280;21656;46.054;13.614;2023-03-26T01:01:22;100293.00;;;8.48;100.00
35553;BME280;21656;46.054;13.614;2023-03-26T01:03:51;100289.47;;;8.48;100.00
35553;BME280;21656;46.054;13.614;2023-03-26T01:06:25;100280.56;;;8.47;100.00
35553;BME280;21656;46.054;13.614;2023-03-26T01:08:52;100281.53;;;8.46;100.00
35553;BME280;21656;46.054;13.614;2023-03-26T01:11:20;100282.81;;;8.40;100.00
35553;BME280;21656;46.054;13.614;2023-03-26T01:13:47;100281.56;;;8.33;100.00
35553;BME280;21656;46.054;13.614;2023-03-26T01:16:17;100277.28;;;8.31;100.00
35553;BME280;21656;46.054;13.614;2023-03-26T01:18:44;100273.13;;;8.14;100.00
35553;BME280;21656;46.054;13.614;2023-03-26T01:21:10;100269.69;;;8.12;100.00
35553;BME280;21656;46.054;13.614;2023-03-26T01:23:45;100276.78;;;8.13;100.00
35553;BME280;21656;46.054;13.614;2023-03-26T01:28:57;100250.56;;;7.79;100.00
35553;BME280;21656;46.054;13.614;2023-03-26T01:36:32;100246.06;;;7.93;100.00
35553;BME280;21656;46.054;13.614;2023-03-26T01:46:35;100244.78;;;7.86;100.00
35553;BME280;21656;46.054;13.614;2023-03-26T01:49:05;100250.00;;;7.87;100.00
35553;BME280;21656;46.054;13.614;2023-03-26T01:51:32;100240.72;;;7.80;100.00
35553;BME280;21656;46.054;13.614;2023-03-26T01:53:58;100246.25;;;7.90;100.00
35553;BME280;21656;46.054;13.614;2023-03-26T01:56:27;100246.25;;;7.90;100.00
35553;BME280;21656;46.054;13.614;2023-03-26T02:04:29;100249.72;;;7.79;100.00
35553;BME280;21656;46.054;13.614;2023-03-26T02:06:58;100246.50;;;7.74;100.00
35553;BME280;21656;46.054;13.614;2023-03-26T02:09:30;100241.66;;;7.79;100.00
35553;BME280;21656;46.054;13.614;2023-03-26T02:11:58;100234.81;;;7.62;100.00
35553;BME280;21656;46.054;13.614;2023-03-26T02:14:25;100239.13;;;7.52;100.00
35553;BME280;21656;46.054;13.614;2023-03-26T02:16:52;100234.75;;;7.38;100.00
35553;BME280;21656;46.054;13.614;2023-03-26T02:19:20;100245.16;;;7.43;100.00
35553;BME280;21656;46.054;13.614;2023-03-26T02:21:48;100239.88;;;7.41;100.00
35553;BME280;21656;46.054;13.614;2023-03-26T02:24:15;100238.59;;;7.34;100.00
35553;BME280;21656;46.054;13.614;2023-03-26T02:26:41;100235.50;;;7.27;100.00
35553;BME280;21656;46.054;13.614;2023-03-26T02:29:06;100251.56;;;7.02;100.00
35553;BME280;21656;46.054;13.614;2023-03-26T02:31:31;100251.09;;;6.95;100.00
35553;BME280;21656;46.054;13.614;2023-03-26T02:33:57;100241.69;;;7.02;100.00
35553;BME280;21656;46.054;13.614;2023-03-26T02:36:22;100249.28;;;7.08;100.00
35553;BME280;21656;46.054;13.614;2023-03-26T02:38:51;100241.03;;;7.11;100.00
35553;BME280;21656;46.054;13.614;2023-03-26T02:41:16;100242.47;;;7.04;100.00
35553;BME280;21656;46.054;13.614;2023-03-26T02:43:42;100240.63;;;7.05;100.00
35553;BME280;21656;46.054;13.614;2023-03-26T02:46:07;100246.38;;;6.86;100.00
35553;BME280;21656;46.054;13.614;2023-03-26T02:48:32;100248.13;;;7.00;100.00
35553;BME280;21656;46.054;13.614;2023-03-26T02:50:59;100247.59;;;7.07;100.00
35553;BME280;21656;46.054;13.614;2023-03-26T02:53:24;100248.91;;;7.14;100.00
35553;BME280;21656;46.054;13.614;2023-03-26T02:55:54;100254.25;;;7.02;100.00
35553;BME280;21656;46.054;13.614;2023-03-26T02:58:19;100246.00;;;7.05;100.00
35553;BME280;21656;46.054;13.614;2023-03-26T07:13:07;100154.94;;;9.66;100.00
35553;BME280;21656;46.054;13.614;2023-03-26T07:15:32;100142.69;;;9.73;100.00
35553;BME280;21656;46.054;13.614;2023-03-26T07:17:57;100139.78;;;9.65;100.00
35553;BME280;21656;46.054;13.614;2023-03-26T07:20:23;100138.78;;;9.66;100.00
35553;BME280;21656;46.054;13.614;2023-03-26T07:22:48;100136.47;;;9.73;100.00
35553;BME280;21656;46.054;13.614;2023-03-26T07:25:14;100132.03;;;9.83;100.00
35553;BME280;21656;46.054;13.614;2023-03-26T07:30:13;100131.56;;;9.78;100.00
35553;BME280;21656;46.054;13.614;2023-03-26T07:32:53;100133.97;;;9.92;100.00
35553;BME280;21656;46.054;13.614;2023-03-26T07:35:23;100129.31;;;9.94;100.00
35553;BME280;21656;46.054;13.614;2023-03-26T07:43:21;100124.56;;;10.30;100.00
35553;BME280;21656;46.054;13.614;2023-03-26T07:45:52;100116.91;;;10.47;100.00
35553;BME280;21656;46.054;13.614;2023-03-26T07:48:19;100114.75;;;10.61;100.00
35553;BME280;21656;46.054;13.614;2023-03-26T07:50:46;100106.47;;;10.74;100.00
35553;BME280;21656;46.054;13.614;2023-03-26T07:53:11;100103.25;;;10.80;100.00
35553;BME280;21656;46.054;13.614;2023-03-26T07:55:38;100097.41;;;10.96;100.00
35553;BME280;21656;46.054;13.614;2023-03-26T08:00:53;100089.38;;;11.16;100.00
35553;BME280;21656;46.054;13.614;2023-03-26T08:06:14;100088.50;;;11.46;100.00
35553;BME280;21656;46.054;13.614;2023-03-26T08:24:18;100070.31;;;12.27;100.00
35553;BME280;21656;46.054;13.614;2023-03-26T08:32:08;100058.44;;;12.77;98.25
35553;BME280;21656;46.054;13.614;2023-03-26T08:34:36;100055.16;;;12.73;94.26
35553;BME280;21656;46.054;13.614;2023-03-26T08:37:02;100050.84;;;12.90;95.21
35553;BME280;21656;46.054;13.614;2023-03-26T08:39:28;100049.06;;;13.09;96.18
35553;BME280;21656;46.054;13.614;2023-03-26T09:36:36;99916.00;;;15.58;75.59
35553;BME280;21656;46.054;13.614;2023-03-26T09:39:11;99906.47;;;15.46;74.33
35553;BME280;21656;46.054;13.614;2023-03-26T09:47:14;99897.50;;;15.61;76.88
35553;BME280;21656;46.054;13.614;2023-03-26T09:59:57;99900.22;;;16.19;71.35
35553;BME280;21656;46.054;13.614;2023-03-26T10:13:07;99864.84;;;16.35;68.06
35553;BME280;21656;46.054;13.614;2023-03-26T10:18:16;99871.34;;;16.18;69.09
35553;BME280;21656;46.054;13.614;2023-03-26T10:20:54;99865.91;;;16.18;69.22
35553;BME280;21656;46.054;13.614;2023-03-26T10:25:59;99858.38;;;16.44;69.22
35553;BME280;21656;46.054;13.614;2023-03-26T10:39:06;99831.13;;;17.23;64.72
35553;BME280;21656;46.054;13.614;2023-03-26T10:52:22;99833.44;;;16.80;64.88
35553;BME280;21656;46.054;13.614;2023-03-26T11:00:12;99824.31;;;17.04;66.23
35553;BME280;21656;46.054;13.614;2023-03-26T11:02:38;99821.28;;;16.99;64.10
35553;BME280;21656;46.054;13.614;2023-03-26T11:11:04;99806.00;;;17.59;64.98
35553;BME280;21656;46.054;13.614;2023-03-26T11:21:51;99785.63;;;17.17;66.12
35553;BME280;21656;46.054;13.614;2023-03-26T11:34:21;99770.00;;;17.34;68.34
35553;BME280;21656;46.054;13.614;2023-03-26T11:36:50;99768.56;;;17.23;71.17
35553;BME280;21656;46.054;13.614;2023-03-26T11:39:24;99761.66;;;17.36;73.04
35553;BME280;21656;46.054;13.614;2023-03-26T11:41:51;99751.00;;;17.49;72.45
35553;BME280;21656;46.054;13.614;2023-03-26T11:44:30;99753.69;;;17.34;73.29
35553;BME280;21656;46.054;13.614;2023-03-26T11:46:57;99750.13;;;17.10;73.22
35553;BME280;21656;46.054;13.614;2023-03-26T11:49:25;99746.22;;;16.90;76.66
35553;BME280;21656;46.054;13.614;2023-03-26T11:51:51;99762.97;;;16.79;80.15
35553;BME280;21656;46.054;13.614;2023-03-26T11:54:17;99761.75;;;16.81;81.34
35553;BME280;21656;46.054;13.614;2023-03-26T11:59:18;99762.78;;;17.03;80.79
35553;BME280;21656;46.054;13.614;2023-03-26T12:04:43;99746.75;;;18.80;71.99
35553;BME280;21656;46.054;13.614;2023-03-26T12:07:23;99740.72;;;19.56;67.43
35553;BME280;21656;46.054;13.614;2023-03-26T12:09:56;99723.69;;;19.54;65.39
35553;BME280;21656;46.054;13.614;2023-03-26T12:12:25;99722.13;;;19.16;64.97
35553;BME280;21656;46.054;13.614;2023-03-26T12:14:51;99716.75;;;18.80;66.29
35553;BME280;21656;46.054;13.614;2023-03-26T12:17:50;99708.13;;;18.25;69.17
35553;BME280;21656;46.054;13.614;2023-03-26T12:20:28;99699.91;;;18.04;71.12
35553;BME280;21656;46.054;13.614;2023-03-26T12:22:55;99694.63;;;17.72;74.89
35553;BME280;21656;46.054;13.614;2023-03-26T12:25:26;99686.06;;;17.75;74.91
35553;BME280;21656;46.054;13.614;2023-03-26T12:32:45;99675.41;;;18.76;73.60
35553;BME280;21656;46.054;13.614;2023-03-26T12:35:30;99656.34;;;18.83;75.59
35553;BME280;21656;46.054;13.614;2023-03-26T12:38:12;99657.88;;;18.71;74.64
35553;BME280;21656;46.054;13.614;2023-03-26T12:40:38;99641.16;;;18.74;76.42
35553;BME280;21656;46.054;13.614;2023-03-26T12:45:49;99632.34;;;18.14;82.82
35553;BME280;21656;46.054;13.614;2023-03-26T12:48:15;99637.53;;;17.64;85.53
35553;BME280;21656;46.054;13.614;2023-03-26T12:53:12;99652.19;;;17.63;92.13
35553;BME280;21656;46.054;13.614;2023-03-26T12:58:51;99633.78;;;17.95;91.13
35553;BME280;21656;46.054;13.614;2023-03-26T13:13:49;99632.31;;;16.72;99.15
35553;BME280;21656;46.054;13.614;2023-03-26T13:18:49;99622.50;;;16.17;100.00
35553;BME280;21656;46.054;13.614;2023-03-26T13:31:52;99612.09;;;15.58;100.00
35553;BME280;21656;46.054;13.614;2023-03-26T13:44:59;99579.66;;;15.25;100.00
35553;BME280;21656;46.054;13.614;2023-03-26T13:47:29;99586.22;;;15.31;100.00
35553;BME280;21656;46.054;13.614;2023-03-26T13:50:00;99590.78;;;15.38;100.00
35553;BME280;21656;46.054;13.614;2023-03-26T13:52:37;99593.88;;;15.27;99.91
35553;BME280;21656;46.054;13.614;2023-03-26T13:57:50;99591.50;;;15.24;99.43
35553;BME280;21656;46.054;13.614;2023-03-26T14:00:23;99582.84;;;15.29;97.49
35553;BME280;21656;46.054;13.614;2023-03-26T14:03:00;99574.06;;;15.18;97.52
35553;BME280;21656;46.054;13.614;2023-03-26T14:05:37;99567.63;;;15.20;98.95
35553;BME280;21656;46.054;13.614;2023-03-26T14:08:05;99554.72;;;15.30;96.39
35553;BME280;21656;46.054;13.614;2023-03-26T14:10:35;99543.03;;;15.29;96.03
35553;BME280;21656;46.054;13.614;2023-03-26T14:13:04;99541.28;;;15.36;95.37
35553;BME280;21656;46.054;13.614;2023-03-26T14:15:35;99530.91;;;15.48;95.53
35553;BME280;21656;46.054;13.614;2023-03-26T14:18:06;99530.63;;;15.66;91.30
35553;BME280;21656;46.054;13.614;2023-03-26T14:20:47;99528.78;;;15.75;91.72
35553;BME280;21656;46.054;13.614;2023-03-26T14:31:41;99510.50;;;15.60;86.26
35553;BME280;21656;46.054;13.614;2023-03-26T14:42:17;99500.66;;;15.59;84.94
35553;BME280;21656;46.054;13.614;2023-03-26T14:44:51;99491.66;;;15.59;84.92
35553;BME280;21656;46.054;13.614;2023-03-26T14:47:23;99489.31;;;15.56;85.74
35553;BME280;21656;46.054;13.614;2023-03-26T14:52:48;99479.97;;;15.58;85.05
35553;BME280;21656;46.054;13.614;2023-03-26T14:55:22;99476.13;;;15.53;84.56
35553;BME280;21656;46.054;13.614;2023-03-26T15:06:41;99459.91;;;15.36;88.41
35553;BME280;21656;46.054;13.614;2023-03-26T15:11:36;99471.47;;;15.30;92.20
35553;BME280;21656;46.054;13.614;2023-03-26T15:19:44;99451.41;;;15.08;92.27
35553;BME280;21656;46.054;13.614;2023-03-26T15:24:51;99426.91;;;14.93;94.00
35553;BME280;21656;46.054;13.614;2023-03-26T15:43:15;99401.31;;;14.48;100.00
35553;BME280;21656;46.054;13.614;2023-03-26T15:46:18;99404.53;;;14.44;100.00
35553;BME280;21656;46.054;13.614;2023-03-26T15:51:36;99398.94;;;14.37;100.00
35553;BME280;21656;46.054;13.614;2023-03-26T15:54:28;99388.31;;;14.36;100.00
35553;BME280;21656;46.054;13.614;2023-03-26T16:02:24;99372.38;;;14.41;100.00
35553;BME280;21656;46.054;13.614;2023-03-26T16:04:55;99367.28;;;14.38;97.47
35553;BME280;21656;46.054;13.614;2023-03-26T16:07:39;99367.63;;;14.35;95.30
35553;BME280;21656;46.054;13.614;2023-03-26T16:10:24;99372.56;;;14.31;94.42
35553;BME280;21656;46.054;13.614;2023-03-26T16:13:13;99363.59;;;14.30;95.62
35553;BME280;21656;46.054;13.614;2023-03-26T16:15:40;99352.41;;;14.25;100.00
35553;BME280;21656;46.054;13.614;2023-03-26T16:20:46;99307.25;;;14.26;100.00
35553;BME280;21656;46.054;13.614;2023-03-26T16:23:19;99300.81;;;14.27;100.00
35553;BME280;21656;46.054;13.614;2023-03-26T16:31:25;99294.59;;;14.18;100.00
35553;BME280;21656;46.054;13.614;2023-03-26T16:33:47;99289.69;;;14.14;100.00
35553;BME280;21656;46.054;13.614;2023-03-26T16:52:01;99211.81;;;13.84;100.00
35553;BME280;21656;46.054;13.614;2023-03-26T16:57:15;99185.25;;;13.80;100.00
35553;BME280;21656;46.054;13.614;2023-03-26T17:04:50;99142.06;;;13.63;100.00
35553;BME280;21656;46.054;13.614;2023-03-26T17:07:18;99140.22;;;13.56;100.00
35553;BME280;21656;46.054;13.614;2023-03-26T17:09:52;99147.13;;;13.58;100.00
35553;BME280;21656;46.054;13.614;2023-03-26T17:22:42;99166.25;;;13.49;100.00
35553;BME280;21656;46.054;13.614;2023-03-26T17:41:08;99206.84;;;12.99;100.00
35553;BME280;21656;46.054;13.614;2023-03-26T17:43:38;99208.53;;;12.92;100.00
35553;BME280;21656;46.054;13.614;2023-03-26T17:48:38;99230.41;;;12.56;100.00
35553;BME280;21656;46.054;13.614;2023-03-26T17:53:50;99243.00;;;12.31;100.00
35553;BME280;21656;46.054;13.614;2023-03-26T17:56:18;99252.94;;;12.31;100.00
35553;BME280;21656;46.054;13.614;2023-03-26T17:58:47;99264.09;;;12.36;100.00
35553;BME280;21656;46.054;13.614;2023-03-26T18:03:49;99265.28;;;12.33;100.00
35553;BME280;21656;46.054;13.614;2023-03-26T18:09:08;99273.50;;;12.24;100.00
35553;BME280;21656;46.054;13.614;2023-03-26T18:14:37;99293.00;;;12.09;100.00
35553;BME280;21656;46.054;13.614;2023-03-26T18:17:09;99302.63;;;12.12;100.00
35553;BME280;21656;46.054;13.614;2023-03-26T18:19:48;99304.47;;;12.11;100.00
35553;BME280;21656;46.054;13.614;2023-03-26T18:22:25;99292.50;;;12.14;100.00
35553;BME280;21656;46.054;13.614;2023-03-26T18:24:53;99279.16;;;12.12;100.00
35553;BME280;21656;46.054;13.614;2023-03-26T18:27:21;99290.84;;;12.13;100.00
35553;BME280;21656;46.054;13.614;2023-03-26T18:32:22;99267.06;;;12.17;100.00
35553;BME280;21656;46.054;13.614;2023-03-26T18:34:53;99273.13;;;12.19;100.00
35553;BME280;21656;46.054;13.614;2023-03-26T18:37:27;99271.72;;;12.06;100.00
35553;BME280;21656;46.054;13.614;2023-03-26T18:42:22;99259.72;;;12.01;100.00
35553;BME280;21656;46.054;13.614;2023-03-26T18:44:47;99267.31;;;11.79;100.00
35553;BME280;21656;46.054;13.614;2023-03-26T18:47:14;99268.41;;;11.60;100.00
35553;BME280;21656;46.054;13.614;2023-03-26T18:49:46;99266.63;;;11.51;100.00
35553;BME280;21656;46.054;13.614;2023-03-26T18:52:15;99258.72;;;11.32;100.00
35553;BME280;21656;46.054;13.614;2023-03-26T18:54:41;99268.34;;;11.34;100.00
35553;BME280;21656;46.054;13.614;2023-03-26T18:57:08;99261.13;;;11.35;100.00
35553;BME280;21656;46.054;13.614;2023-03-26T18:59:34;99239.03;;;11.31;100.00
35553;BME280;21656;46.054;13.614;2023-03-26T19:02:08;99228.72;;;11.26;100.00
35553;BME280;21656;46.054;13.614;2023-03-26T19:04:34;99230.06;;;11.22;100.00
35553;BME280;21656;46.054;13.614;2023-03-26T19:07:01;99224.59;;;11.14;100.00
35553;BME280;21656;46.054;13.614;2023-03-26T19:09:28;99207.56;;;11.14;100.00
35553;BME280;21656;46.054;13.614;2023-03-26T19:11:55;99220.59;;;11.00;100.00
35553;BME280;21656;46.054;13.614;2023-03-26T19:14:21;99222.06;;;10.95;100.00
35553;BME280;21656;46.054;13.614;2023-03-26T19:16:52;99218.00;;;10.91;100.00
35553;BME280;21656;46.054;13.614;2023-03-26T19:19:21;99205.09;;;10.76;100.00
35553;BME280;21656;46.054;13.614;2023-03-26T19:21:47;99203.94;;;10.79;100.00
35553;BME280;21656;46.054;13.614;2023-03-26T19:24:13;99195.63;;;10.72;100.00
35553;BME280;21656;46.054;13.614;2023-03-26T19:26:40;99196.91;;;10.68;100.00
35553;BME280;21656;46.054;13.614;2023-03-26T19:29:05;99171.78;;;10.59;100.00
35553;BME280;21656;46.054;13.614;2023-03-26T19:31:36;99182.16;;;10.54;100.00
35553;BME280;21656;46.054;13.614;2023-03-26T19:36:54;99165.38;;;10.43;100.00
35553;BME280;21656;46.054;13.614;2023-03-26T19:39:33;99169.53;;;10.37;100.00
35553;BME280;21656;46.054;13.614;2023-03-26T19:42:00;99158.91;;;10.35;100.00
35553;BME280;21656;46.054;13.614;2023-03-26T19:44:27;99154.84;;;10.31;100.00
35553;BME280;21656;46.054;13.614;2023-03-26T19:47:01;99151.19;;;10.23;100.00
35553;BME280;21656;46.054;13.614;2023-03-26T19:49:28;99154.81;;;10.13;100.00
35553;BME280;21656;46.054;13.614;2023-03-26T19:52:01;99136.34;;;10.01;100.00
35553;BME280;21656;46.054;13.614;2023-03-26T19:54:26;99107.97;;;9.88;100.00
35553;BME280;21656;46.054;13.614;2023-03-26T19:56:54;99100.38;;;10.02;100.00
35553;BME280;21656;46.054;13.614;2023-03-26T19:59:19;99093.91;;;9.94;100.00
35553;BME280;21656;46.054;13.614;2023-03-26T20:01:45;99080.91;;;9.90;100.00
35553;BME280;21656;46.054;13.614;2023-03-26T20:04:10;99061.88;;;9.83;100.00
35553;BME280;21656;46.054;13.614;2023-03-26T20:06:36;99052.00;;;9.74;100.00
35553;BME280;21656;46.054;13.614;2023-03-26T20:09:04;99056.47;;;9.65;100.00
35553;BME280;21656;46.054;13.614;2023-03-26T20:11:34;99047.41;;;9.66;100.00
35553;BME280;21656;46.054;13.614;2023-03-26T20:14:12;99031.63;;;9.53;100.00
35553;BME280;21656;46.054;13.614;2023-03-26T20:16:38;99028.81;;;9.55;100.00
35553;BME280;21656;46.054;13.614;2023-03-26T20:19:03;99028.94;;;9.53;100.00
35553;BME280;21656;46.054;13.614;2023-03-26T20:21:29;99033.09;;;9.48;100.00
35553;BME280;21656;46.054;13.614;2023-03-26T20:23:56;99026.09;;;9.37;100.00
35553;BME280;21656;46.054;13.614;2023-03-26T20:26:23;99017.16;;;9.37;100.00
35553;BME280;21656;46.054;13.614;2023-03-26T20:28:49;99004.94;;;9.24;100.00
35553;BME280;21656;46.054;13.614;2023-03-26T20:31:19;99008.88;;;9.30;100.00
35553;BME280;21656;46.054;13.614;2023-03-26T20:33:46;99002.66;;;9.29;100.00
35553;BME280;21656;46.054;13.614;2023-03-26T20:36:12;98986.97;;;9.25;100.00
35553;BME280;21656;46.054;13.614;2023-03-26T20:38:38;98977.84;;;9.18;100.00
